Breydel — OROS — position and weather

sailwx.info

Track history (hours):
 
Tides and Currents Weather Stations Pressure Air Temp Water Temp Dewpoint Dewpoint Depression Visibility Wind Speed Wind Dir Waves Ship Positions

Breydel

Last reported at 2018-Feb-12 19:07 UTC. Time now 2018-Feb-25 00:02 UTC.
Position N 36°17' E 014°52'.
Warning: this ship's position is 12 days out of date.

Length 125 m; draft 5.5 m.

Type: Dredging. MMSI: 205520000.

Date/timePositionNaut miles runAvg speedWind from/ knotsBaromVisibWave heightAir tempDewpointWater temp
2018-Feb-12 19:07N 36°17' E 014°52'213.4
2018-Feb-12 18:56N 36°18' E 014°49'613.4
2018-Feb-12 18:29N 36°20' E 014°42'613.4
2018-Feb-12 18:00N 36°22' E 014°35'713.5
2018-Feb-12 17:30N 36°24' E 014°27'713.3
2018-Feb-12 17:00N 36°26' E 014°19'713.2
2018-Feb-12 16:30N 36°28' E 014°11'1511.7
2018-Feb-12 15:16N 36°33' E 013°54'413.3
2018-Feb-12 14:58N 36°35' E 013°50'  
2018-Feb-09 01:30N 36°07' W 005°18'0 0.0
2018-Feb-09 00:00N 36°07' W 005°18'4 0.7
2018-Feb-08 19:00N 36°09' W 005°22'0 0.0
2018-Feb-08 18:00N 36°09' W 005°22'0 0.0
2018-Feb-08 17:30N 36°09' W 005°22'0 0.0
2018-Feb-08 16:30N 36°09' W 005°22'0 0.1
2018-Feb-08 16:00N 36°09' W 005°22'2 3.5
2018-Feb-08 15:30N 36°07' W 005°23'2 4.3
2018-Feb-08 15:00N 36°05' W 005°23'  
Track history (hours):
 
Tides and Currents Weather Stations Pressure Air Temp Water Temp Dewpoint Dewpoint Depression Visibility Wind Speed Wind Dir Waves Ship Positions

Breydel

Last reported at 2018-Feb-12 19:07 UTC. Time now 2018-Feb-25 00:02 UTC.
Position N 36°17' E 014°52'.
Warning: this ship's position is 12 days out of date.

Length 125 m; draft 5.5 m.

Type: Dredging. MMSI: 205520000.

Date/timePositionNaut miles runAvg speedWind from/ knotsBaromVisibWave heightAir tempDewpointWater temp
2018-Feb-12 19:07N 36°17' E 014°52'213.4
2018-Feb-12 18:56N 36°18' E 014°49'613.4
2018-Feb-12 18:29N 36°20' E 014°42'613.4
2018-Feb-12 18:00N 36°22' E 014°35'713.5
2018-Feb-12 17:30N 36°24' E 014°27'713.3
2018-Feb-12 17:00N 36°26' E 014°19'713.2
2018-Feb-12 16:30N 36°28' E 014°11'1511.7
2018-Feb-12 15:16N 36°33' E 013°54'413.3
2018-Feb-12 14:58N 36°35' E 013°50'  
2018-Feb-09 01:30N 36°07' W 005°18'0 0.0
2018-Feb-09 00:00N 36°07' W 005°18'4 0.7
2018-Feb-08 19:00N 36°09' W 005°22'0 0.0
2018-Feb-08 18:00N 36°09' W 005°22'0 0.0
2018-Feb-08 17:30N 36°09' W 005°22'0 0.0
2018-Feb-08 16:30N 36°09' W 005°22'0 0.1
2018-Feb-08 16:00N 36°09' W 005°22'2 3.5
2018-Feb-08 15:30N 36°07' W 005°23'2 4.3
2018-Feb-08 15:00N 36°05' W 005°23'  

Dump ship's entire track history